createdAt,value
2023-01-22T00:00:11.063Z,102010.08
2023-01-22T00:01:12.062Z,102012.66
2023-01-22T00:02:11.085Z,102010.34
2023-01-22T00:03:11.069Z,102008.54
2023-01-22T00:04:11.063Z,102009.60
2023-01-22T00:05:11.080Z,102008.21
2023-01-22T00:06:11.066Z,102008.73
2023-01-22T00:07:11.065Z,102009.31
2023-01-22T00:08:11.071Z,102006.86
2023-01-22T00:09:11.063Z,102008.21
2023-01-22T00:10:11.063Z,102009.86
2023-01-22T00:11:11.064Z,102009.02
2023-01-22T00:12:11.076Z,102007.76
2023-01-22T00:13:11.074Z,102006.38
2023-01-22T00:14:11.123Z,102003.35
2023-01-22T00:15:11.084Z,102003.64
2023-01-22T00:16:12.140Z,102000.88
2023-01-22T00:17:11.064Z,102002.68
2023-01-22T00:18:11.073Z,102002.68
2023-01-22T00:19:11.068Z,102004.74
2023-01-22T00:20:11.066Z,101999.77
2023-01-22T00:21:14.071Z,102003.09
2023-01-22T00:22:11.063Z,102005.85
2023-01-22T00:23:11.093Z,102002.54
2023-01-22T00:24:11.081Z,101999.58
2023-01-22T00:25:11.084Z,101998.46
2023-01-22T00:26:12.098Z,101995.20
2023-01-22T00:27:11.109Z,101993.53
2023-01-22T00:28:11.119Z,101992.75
2023-01-22T00:29:11.091Z,101993.37
2023-01-22T00:30:11.071Z,101993.21
2023-01-22T00:31:11.275Z,101990.28
2023-01-22T00:32:11.185Z,101989.15
2023-01-22T00:33:11.071Z,101991.92
2023-01-22T00:34:12.132Z,101991.02
2023-01-22T00:35:11.063Z,101990.63
2023-01-22T00:36:14.066Z,101992.34
2023-01-22T00:37:11.098Z,101990.89
2023-01-22T00:38:11.085Z,101992.98
2023-01-22T00:39:11.109Z,101990.38
2023-01-22T00:40:11.081Z,101988.21
2023-01-22T00:41:11.070Z,101988.89
2023-01-22T00:42:11.104Z,101989.37
2023-01-22T00:43:11.120Z,101987.63
2023-01-22T00:44:11.067Z,101985.86
2023-01-22T00:45:12.093Z,101986.27
2023-01-22T00:46:11.217Z,101983.91
2023-01-22T00:47:11.064Z,101985.88
2023-01-22T00:48:11.064Z,101984.57
2023-01-22T00:49:11.126Z,101985.38
2023-01-22T00:50:11.116Z,101984.66
2023-01-22T00:51:12.074Z,101989.39
2023-01-22T00:52:11.106Z,101989.27
2023-01-22T00:53:11.061Z,101989.36
2023-01-22T00:54:11.062Z,101988.30
2023-01-22T00:55:11.069Z,101985.17
2023-01-22T00:56:11.133Z,101987.52
2023-01-22T00:57:11.098Z,101981.51
2023-01-22T00:58:11.071Z,101981.86
2023-01-22T00:59:14.101Z,101978.23
2023-01-22T01:00:11.061Z,101981.10
2023-01-22T01:01:11.127Z,101981.10
2023-01-22T01:02:11.116Z,101983.86
2023-01-22T01:03:15.056Z,101984.32
2023-01-22T01:04:11.071Z,101984.90
2023-01-22T01:05:11.094Z,101983.45
2023-01-22T01:06:15.069Z,101981.55
2023-01-22T01:07:11.113Z,101981.10
2023-01-22T01:08:11.069Z,101981.42
2023-01-22T01:09:11.059Z,101976.18
2023-01-22T01:10:11.099Z,101974.18
2023-01-22T01:11:14.072Z,101970.55
2023-01-22T01:12:11.113Z,101962.34
2023-01-22T01:13:11.118Z,101967.04
2023-01-22T01:14:11.075Z,101966.16
2023-01-22T01:15:11.125Z,101969.45
2023-01-22T01:16:14.104Z,101970.93
2023-01-22T01:17:11.083Z,101967.74
2023-01-22T01:18:11.127Z,101970.54
2023-01-22T01:19:11.093Z,101971.32
2023-01-22T01:20:11.118Z,101966.36
2023-01-22T01:21:11.126Z,101968.35
2023-01-22T01:22:12.088Z,101964.62
2023-01-22T01:23:11.057Z,101962.56
2023-01-22T01:24:11.068Z,101967.55
2023-01-22T01:25:11.062Z,101965.65
2023-01-22T01:26:11.068Z,101970.12
2023-01-22T01:27:11.070Z,101968.77
2023-01-22T01:28:11.062Z,101969.45
2023-01-22T01:29:12.063Z,101968.13
2023-01-22T01:30:11.083Z,101970.06
2023-01-22T01:31:12.341Z,101969.96
2023-01-22T01:32:11.062Z,101971.70
2023-01-22T01:33:11.060Z,101972.63
2023-01-22T01:34:11.062Z,101977.78
2023-01-22T01:35:11.060Z,101975.11
2023-01-22T01:36:14.066Z,101975.01
2023-01-22T01:37:11.064Z,101977.21
2023-01-22T01:38:11.059Z,101977.62
2023-01-22T01:39:11.070Z,101982.25
2023-01-22T01:40:11.083Z,101982.70
2023-01-22T01:41:12.068Z,101981.16
2023-01-22T01:42:11.061Z,101983.22
2023-01-22T01:43:15.067Z,101987.59
2023-01-22T01:44:15.077Z,101990.43
2023-01-22T01:45:19.062Z,101990.33
2023-01-22T01:46:22.157Z,101990.84
2023-01-22T01:47:19.070Z,101989.75
2023-01-22T01:48:19.062Z,101989.85
2023-01-22T01:49:19.067Z,101991.04
2023-01-22T01:50:11.061Z,101994.61
2023-01-22T01:51:17.103Z,101998.89
2023-01-22T01:52:12.065Z,101994.64
2023-01-22T01:53:11.060Z,101998.83
2023-01-22T01:54:11.062Z,102004.62
2023-01-22T01:55:11.064Z,101999.50
2023-01-22T01:56:17.066Z,102000.23
2023-01-22T01:57:14.066Z,101999.36
2023-01-22T01:58:12.069Z,101999.91
2023-01-22T01:59:12.065Z,101997.82
2023-01-22T02:00:14.062Z,102005.73
2023-01-22T02:01:12.184Z,102007.34
2023-01-22T02:02:11.179Z,102013.29
2023-01-22T02:03:11.061Z,102014.35
2023-01-22T02:04:11.072Z,102020.73
2023-01-22T02:05:11.066Z,102019.75
2023-01-22T02:06:11.059Z,102020.78
2023-01-22T02:07:11.068Z,102019.46
2023-01-22T02:08:11.065Z,102021.03
2023-01-22T02:09:11.061Z,102018.40
2023-01-22T02:10:11.065Z,102020.95
2023-01-22T02:11:11.061Z,102021.20
2023-01-22T02:12:11.061Z,102018.79
2023-01-22T02:13:14.064Z,102022.20
2023-01-22T02:14:14.062Z,102023.46
2023-01-22T02:15:11.063Z,102023.80
2023-01-22T02:16:11.097Z,102023.96
2023-01-22T02:17:16.067Z,102025.14
2023-01-22T02:18:11.061Z,102022.45
2023-01-22T02:19:11.064Z,102022.57
2023-01-22T02:20:11.071Z,102019.71
2023-01-22T02:21:19.067Z,102021.55
2023-01-22T02:22:18.059Z,102019.07
2023-01-22T02:23:11.065Z,102017.08
2023-01-22T02:24:11.081Z,102019.36
2023-01-22T02:25:11.061Z,102019.38
2023-01-22T02:26:11.072Z,102020.13
2023-01-22T02:27:11.084Z,102017.33
2023-01-22T02:28:11.072Z,102018.07
2023-01-22T02:29:11.062Z,102017.52
2023-01-22T02:30:11.075Z,102019.59
2023-01-22T02:31:11.215Z,102020.78
2023-01-22T02:32:11.079Z,102017.31
2023-01-22T02:33:11.091Z,102017.92
2023-01-22T02:34:11.066Z,102017.37
2023-01-22T02:35:11.069Z,102015.18
2023-01-22T02:36:11.069Z,102012.93
2023-01-22T02:37:11.072Z,102011.54
2023-01-22T02:38:11.061Z,102011.54
2023-01-22T02:39:11.069Z,102010.70
2023-01-22T02:40:11.062Z,102014.80
2023-01-22T02:41:11.064Z,102014.38
2023-01-22T02:42:11.066Z,102011.47
2023-01-22T02:43:11.063Z,102008.78
2023-01-22T02:44:11.058Z,102007.37
2023-01-22T02:45:11.063Z,102012.01
2023-01-22T02:46:11.063Z,102011.55
2023-01-22T02:47:11.071Z,102013.06
2023-01-22T02:48:11.062Z,102016.05
2023-01-22T02:49:11.064Z,102018.63
2023-01-22T02:50:11.061Z,102016.58
2023-01-22T02:51:11.109Z,102018.69
2023-01-22T02:52:11.063Z,102020.17
2023-01-22T02:53:11.062Z,102019.66
2023-01-22T02:54:11.063Z,102016.86
2023-01-22T02:55:11.070Z,102015.63
2023-01-22T02:56:11.059Z,102013.41
2023-01-22T02:57:11.072Z,102010.84
2023-01-22T02:58:11.069Z,102008.91
2023-01-22T02:59:11.061Z,102006.20
2023-01-22T03:00:11.066Z,102005.61
2023-01-22T03:01:16.125Z,102001.23
2023-01-22T03:02:11.159Z,102003.20
2023-01-22T03:03:12.059Z,101999.46
2023-01-22T03:04:14.068Z,102000.73
2023-01-22T03:05:11.066Z,101996.59
2023-01-22T03:06:11.061Z,101998.30
2023-01-22T03:07:11.097Z,101996.47
2023-01-22T03:08:11.089Z,101999.95
2023-01-22T03:09:11.077Z,102002.77
2023-01-22T03:10:14.073Z,102007.23
2023-01-22T03:11:11.073Z,102011.57
2023-01-22T03:12:11.070Z,102012.70
2023-01-22T03:13:15.066Z,102019.08
2023-01-22T03:14:15.072Z,102017.86
2023-01-22T03:15:15.066Z,102019.50
2023-01-22T03:16:15.095Z,102021.33
2023-01-22T03:17:15.070Z,102017.86
2023-01-22T03:18:15.070Z,102015.29
2023-01-22T03:19:15.081Z,102016.10
2023-01-22T03:20:15.251Z,102016.42
2023-01-22T03:21:17.068Z,102019.28
2023-01-22T03:22:11.063Z,102019.41
2023-01-22T03:23:11.070Z,102015.60
2023-01-22T03:24:11.062Z,102016.12
2023-01-22T03:25:11.073Z,102015.34
2023-01-22T03:26:11.071Z,102012.09
2023-01-22T03:27:11.069Z,102009.42
2023-01-22T03:28:13.105Z,102004.50
2023-01-22T03:29:11.110Z,102001.77
2023-01-22T03:30:11.119Z,101997.61
2023-01-22T03:31:11.102Z,101996.13
2023-01-22T03:32:11.133Z,101992.02
2023-01-22T03:33:11.072Z,101992.50
2023-01-22T03:34:11.069Z,101991.41
2023-01-22T03:35:11.071Z,101989.76
2023-01-22T03:36:12.064Z,101989.79
2023-01-22T03:37:11.065Z,101991.94
2023-01-22T03:38:11.070Z,101987.72
2023-01-22T03:39:11.064Z,101987.81
2023-01-22T03:40:11.091Z,101986.30
2023-01-22T03:41:15.080Z,101983.95
2023-01-22T03:42:11.063Z,101984.81
2023-01-22T03:43:11.062Z,101984.99
2023-01-22T03:44:13.093Z,101987.13
2023-01-22T03:45:11.065Z,101988.25
2023-01-22T03:46:14.140Z,101987.87
2023-01-22T03:47:11.062Z,101993.40
2023-01-22T03:48:11.071Z,101993.57
2023-01-22T03:49:12.069Z,101992.91
2023-01-22T03:50:11.069Z,101996.71
2023-01-22T03:51:14.252Z,101993.15
2023-01-22T03:52:11.074Z,101994.31
2023-01-22T03:53:11.073Z,101990.36
2023-01-22T03:54:12.066Z,101990.59
2023-01-22T03:55:11.064Z,101988.06
2023-01-22T03:56:12.064Z,101982.76
2023-01-22T03:57:11.071Z,101983.36
2023-01-22T03:58:11.063Z,101976.36
2023-01-22T03:59:11.067Z,101978.73
2023-01-22T04:00:11.063Z,101977.23
2023-01-22T04:01:14.089Z,101976.15
2023-01-22T04:02:11.079Z,101978.25
2023-01-22T04:03:11.074Z,101981.85
2023-01-22T04:04:11.068Z,101979.10
2023-01-22T04:05:11.060Z,101978.37
2023-01-22T04:06:11.069Z,101974.97
2023-01-22T04:07:11.088Z,101973.98
2023-01-22T04:08:11.064Z,101977.59
2023-01-22T04:09:11.063Z,101974.93
2023-01-22T04:10:11.068Z,101975.35
2023-01-22T04:11:11.058Z,101981.02
2023-01-22T04:12:11.065Z,101985.90
2023-01-22T04:13:11.070Z,101984.06
2023-01-22T04:14:11.061Z,101987.50
2023-01-22T04:15:11.063Z,101986.14
2023-01-22T04:16:11.079Z,101984.94
2023-01-22T04:17:11.069Z,101979.18
2023-01-22T04:18:11.064Z,101981.03
2023-01-22T04:19:11.112Z,101977.69
2023-01-22T04:20:11.075Z,101978.47
2023-01-22T04:21:11.058Z,101984.99
2023-01-22T04:22:11.076Z,101981.20
2023-01-22T04:23:11.075Z,101987.12
2023-01-22T04:24:11.063Z,101981.41
2023-01-22T04:25:11.068Z,101980.56
2023-01-22T04:26:11.069Z,101970.99
2023-01-22T04:27:11.062Z,101969.28
2023-01-22T04:28:11.069Z,101963.85
2023-01-22T04:29:11.073Z,101962.59
2023-01-22T04:30:11.068Z,101964.65
2023-01-22T04:31:12.253Z,101968.87
2023-01-22T04:32:11.066Z,101969.20
2023-01-22T04:33:11.060Z,101971.97
2023-01-22T04:34:11.061Z,101969.34
2023-01-22T04:35:11.072Z,101971.70
2023-01-22T04:36:11.064Z,101969.89
2023-01-22T04:37:11.065Z,101964.75
2023-01-22T04:38:12.072Z,101965.38
2023-01-22T04:39:11.066Z,101964.12
2023-01-22T04:40:12.069Z,101961.42
2023-01-22T04:41:11.068Z,101962.23
2023-01-22T04:42:12.061Z,101962.58
2023-01-22T04:43:11.057Z,101967.75
2023-01-22T04:44:11.069Z,101967.71
2023-01-22T04:45:11.062Z,101967.02
2023-01-22T04:46:11.176Z,101968.94
2023-01-22T04:47:11.066Z,101965.95
2023-01-22T04:48:11.156Z,101963.40
2023-01-22T04:49:11.061Z,101965.75
2023-01-22T04:50:17.507Z,101962.76
2023-01-22T04:51:11.180Z,101962.63
2023-01-22T04:52:11.061Z,101960.25
2023-01-22T04:53:11.061Z,101959.48
2023-01-22T04:54:11.070Z,101959.12
2023-01-22T04:55:11.063Z,101960.63
2023-01-22T04:56:11.059Z,101961.27
2023-01-22T04:57:11.073Z,101960.52
2023-01-22T04:58:11.062Z,101959.10
2023-01-22T04:59:11.060Z,101961.56
2023-01-22T05:00:11.065Z,101960.41
2023-01-22T05:01:11.127Z,101959.93
2023-01-22T05:02:11.079Z,101959.48
2023-01-22T05:03:11.062Z,101958.71
2023-01-22T05:04:11.063Z,101960.00
2023-01-22T05:05:11.066Z,101960.25
2023-01-22T05:06:11.067Z,101961.82
2023-01-22T05:07:11.109Z,101960.30
2023-01-22T05:08:11.060Z,101966.38
2023-01-22T05:09:11.108Z,101964.21
2023-01-22T05:10:11.073Z,101969.84
2023-01-22T05:11:11.064Z,101967.03
2023-01-22T05:12:11.061Z,101967.42
2023-01-22T05:13:11.062Z,101963.18
2023-01-22T05:14:11.065Z,101966.59
2023-01-22T05:15:23.164Z,101963.33
2023-01-22T05:16:13.122Z,101966.00
2023-01-22T05:17:11.061Z,101970.07
2023-01-22T05:18:11.068Z,101968.21
2023-01-22T05:19:11.072Z,101971.17
2023-01-22T05:20:11.061Z,101971.71
2023-01-22T05:21:11.061Z,101970.18
2023-01-22T05:22:11.066Z,101968.65
2023-01-22T05:23:11.062Z,101968.31
2023-01-22T05:24:11.058Z,101964.17
2023-01-22T05:25:11.081Z,101967.20
2023-01-22T05:26:11.109Z,101964.28
2023-01-22T05:27:11.065Z,101967.82
2023-01-22T05:28:11.072Z,101966.31
2023-01-22T05:29:11.066Z,101966.50
2023-01-22T05:30:11.063Z,101967.30
2023-01-22T05:31:11.265Z,101968.56
2023-01-22T05:32:11.065Z,101962.31
2023-01-22T05:33:11.548Z,101965.31
2023-01-22T05:34:11.066Z,101960.70
2023-01-22T05:35:11.061Z,101959.31
2023-01-22T05:36:11.060Z,101959.18
2023-01-22T05:37:11.075Z,101960.01
2023-01-22T05:38:11.087Z,101959.88
2023-01-22T05:39:11.062Z,101961.71
2023-01-22T05:40:11.062Z,101962.82
2023-01-22T05:41:11.066Z,101961.75
2023-01-22T05:42:14.058Z,101964.52
2023-01-22T05:43:11.064Z,101957.89
2023-01-22T05:44:12.065Z,101962.01
2023-01-22T05:45:11.065Z,101960.65
2023-01-22T05:46:11.115Z,101960.64
2023-01-22T05:47:11.064Z,101959.52
2023-01-22T05:48:11.068Z,101960.17
2023-01-22T05:49:11.064Z,101964.15
2023-01-22T05:50:11.078Z,101962.29
2023-01-22T05:51:11.178Z,101960.18
2023-01-22T05:52:11.111Z,101957.89
2023-01-22T05:53:11.067Z,101957.33
2023-01-22T05:54:11.063Z,101952.61
2023-01-22T05:55:11.065Z,101954.95
2023-01-22T05:56:11.062Z,101952.09
2023-01-22T05:57:11.071Z,101952.63
2023-01-22T05:58:11.061Z,101955.09
2023-01-22T05:59:11.062Z,101953.64
2023-01-22T06:00:11.081Z,101955.38
2023-01-22T06:01:11.061Z,101956.62
2023-01-22T06:02:11.104Z,101953.98
2023-01-22T06:03:11.083Z,101950.80
2023-01-22T06:04:11.066Z,101950.80
2023-01-22T06:05:11.136Z,101946.21
2023-01-22T06:06:12.071Z,101943.64
2023-01-22T06:07:11.061Z,101946.33
2023-01-22T06:08:11.059Z,101946.67
2023-01-22T06:09:11.065Z,101949.05
2023-01-22T06:10:12.063Z,101950.41
2023-01-22T06:11:14.062Z,101952.30
2023-01-22T06:12:11.065Z,101956.03
2023-01-22T06:13:11.067Z,101953.05
2023-01-22T06:14:11.064Z,101951.74
2023-01-22T06:15:11.071Z,101948.15
2023-01-22T06:16:11.147Z,101948.90
2023-01-22T06:17:11.061Z,101949.54
2023-01-22T06:18:11.064Z,101945.35
2023-01-22T06:19:11.074Z,101949.24
2023-01-22T06:20:11.087Z,101943.24
2023-01-22T06:21:11.066Z,101945.23
2023-01-22T06:22:11.070Z,101942.91
2023-01-22T06:23:11.063Z,101941.82
2023-01-22T06:24:11.058Z,101940.02
2023-01-22T06:25:11.079Z,101941.06
2023-01-22T06:26:11.064Z,101941.64
2023-01-22T06:27:11.060Z,101940.91
2023-01-22T06:28:11.072Z,101941.96
2023-01-22T06:29:11.065Z,101946.54
2023-01-22T06:30:11.067Z,101942.79
2023-01-22T06:31:11.234Z,101944.55
2023-01-22T06:32:11.071Z,101945.19
2023-01-22T06:33:11.063Z,101945.88
2023-01-22T06:34:11.063Z,101947.14
2023-01-22T06:35:11.069Z,101946.70
2023-01-22T06:36:11.063Z,101948.85
2023-01-22T06:37:11.084Z,101947.84
2023-01-22T06:38:11.071Z,101950.23
2023-01-22T06:39:11.082Z,101946.18
2023-01-22T06:40:11.066Z,101951.04
2023-01-22T06:41:11.081Z,101951.18
2023-01-22T06:42:11.072Z,101950.78
2023-01-22T06:43:11.061Z,101950.88
2023-01-22T06:44:11.065Z,101950.90
2023-01-22T06:45:11.067Z,101952.70
2023-01-22T06:46:11.124Z,101953.06
2023-01-22T06:47:11.072Z,101956.61
2023-01-22T06:48:11.067Z,101956.64
2023-01-22T06:49:11.062Z,101955.79
2023-01-22T06:50:11.069Z,101959.52
2023-01-22T06:51:11.159Z,101958.07
2023-01-22T06:52:11.069Z,101959.27
2023-01-22T06:53:11.064Z,101963.80
2023-01-22T06:54:12.071Z,101960.02
2023-01-22T06:55:11.062Z,101967.67
2023-01-22T06:56:11.067Z,101966.45
2023-01-22T06:57:11.071Z,101969.60
2023-01-22T06:58:11.063Z,101967.68
2023-01-22T06:59:11.067Z,101968.96
2023-01-22T07:00:11.080Z,101974.21
2023-01-22T07:01:11.062Z,101972.37
2023-01-22T07:02:16.079Z,101971.02
2023-01-22T07:03:11.072Z,101971.98
2023-01-22T07:04:11.063Z,101975.32
2023-01-22T07:05:11.060Z,101976.31
2023-01-22T07:06:11.070Z,101981.20
2023-01-22T07:07:11.063Z,101979.92
2023-01-22T07:08:14.065Z,101979.47
2023-01-22T07:09:11.064Z,101981.93
2023-01-22T07:10:11.091Z,101982.53
2023-01-22T07:11:11.060Z,101983.36
2023-01-22T07:12:11.064Z,101985.71
2023-01-22T07:13:11.065Z,101992.83
2023-01-22T07:14:11.061Z,101995.61
2023-01-22T07:15:11.063Z,101998.02
2023-01-22T07:16:11.111Z,101998.42
2023-01-22T07:17:11.062Z,101999.36
2023-01-22T07:18:11.067Z,102003.54
2023-01-22T07:19:11.064Z,102001.33
2023-01-22T07:20:11.061Z,102002.72
2023-01-22T07:21:11.065Z,102003.62
2023-01-22T07:22:11.070Z,102000.91
2023-01-22T07:23:11.062Z,101997.61
2023-01-22T07:24:11.062Z,101998.28
2023-01-22T07:25:11.064Z,101998.02
2023-01-22T07:26:11.074Z,101998.44
2023-01-22T07:27:11.063Z,102002.46
2023-01-22T07:28:11.070Z,101999.16
2023-01-22T07:29:11.063Z,102001.23
2023-01-22T07:30:11.061Z,101995.64
2023-01-22T07:31:13.163Z,101997.48
2023-01-22T07:32:11.063Z,101997.64
2023-01-22T07:33:12.061Z,101996.55
2023-01-22T07:34:11.068Z,101996.79
2023-01-22T07:35:11.062Z,101993.48
2023-01-22T07:36:11.078Z,101990.91
2023-01-22T07:37:11.065Z,101987.88
2023-01-22T07:38:11.065Z,101982.77
2023-01-22T07:39:11.060Z,101983.51
2023-01-22T07:40:11.063Z,101978.57
2023-01-22T07:41:24.914Z,101975.73
2023-01-22T07:42:13.075Z,101976.28
2023-01-22T07:43:11.064Z,101976.60
2023-01-22T07:44:11.066Z,101977.16
2023-01-22T07:45:11.068Z,101974.27
2023-01-22T07:46:11.119Z,101973.69
2023-01-22T07:47:11.069Z,101978.97
2023-01-22T07:48:11.060Z,101977.52
2023-01-22T07:49:11.064Z,101979.36
2023-01-22T07:50:11.070Z,101977.63
2023-01-22T07:51:11.110Z,101979.27
2023-01-22T07:52:11.061Z,101976.87
2023-01-22T07:53:11.072Z,101973.72
2023-01-22T07:54:11.072Z,101975.59
2023-01-22T07:55:11.061Z,101978.23
2023-01-22T07:56:11.066Z,101975.95
2023-01-22T07:57:11.065Z,101982.84
2023-01-22T07:58:11.063Z,101982.75
2023-01-22T07:59:11.063Z,101981.78
2023-01-22T08:00:11.067Z,101983.36
2023-01-22T08:01:11.220Z,101984.29
2023-01-22T08:02:14.112Z,101988.41
2023-01-22T08:03:11.068Z,101988.93
2023-01-22T08:04:11.070Z,101988.68
2023-01-22T08:05:12.063Z,101991.83
2023-01-22T08:06:17.064Z,101989.22
2023-01-22T08:07:17.062Z,101991.21
2023-01-22T08:08:15.061Z,101988.87
2023-01-22T08:09:11.062Z,101987.42
2023-01-22T08:10:11.065Z,101987.49
2023-01-22T08:11:11.071Z,101983.98
2023-01-22T08:12:11.061Z,101984.39
2023-01-22T08:13:11.067Z,101987.26
2023-01-22T08:14:11.064Z,101988.32
2023-01-22T08:15:11.063Z,101984.62
2023-01-22T08:16:11.096Z,101986.71
2023-01-22T08:17:11.067Z,101982.82
2023-01-22T08:18:11.068Z,101983.91
2023-01-22T08:19:11.084Z,101986.00
2023-01-22T08:20:11.077Z,101987.58
2023-01-22T08:21:11.098Z,101992.28
2023-01-22T08:22:11.072Z,101996.08
2023-01-22T08:23:11.062Z,101999.75
2023-01-22T08:24:11.070Z,102000.13
2023-01-22T08:25:11.071Z,102006.51
2023-01-22T08:26:11.065Z,102009.02
2023-01-22T08:27:11.060Z,102010.14
2023-01-22T08:28:11.070Z,102006.65
2023-01-22T08:29:11.064Z,102013.41
2023-01-22T08:30:11.076Z,102014.89
2023-01-22T08:31:19.335Z,102013.44
2023-01-22T08:32:13.114Z,102010.79
2023-01-22T08:33:11.062Z,102009.82
2023-01-22T08:34:11.063Z,102012.68
2023-01-22T08:35:12.960Z,102015.47
2023-01-22T08:36:11.064Z,102011.60
2023-01-22T08:37:11.070Z,102009.67
2023-01-22T08:38:11.074Z,102010.54
2023-01-22T08:39:11.072Z,102014.63
2023-01-22T08:40:11.059Z,102014.05
2023-01-22T08:41:11.081Z,102022.13
2023-01-22T08:42:11.065Z,102020.00
2023-01-22T08:43:11.070Z,102017.52
2023-01-22T08:44:13.066Z,102016.74
2023-01-22T08:45:11.067Z,102013.52
2023-01-22T08:46:11.162Z,102014.86
2023-01-22T08:47:11.063Z,102014.25
2023-01-22T08:48:11.064Z,102014.99
2023-01-22T08:49:11.063Z,102017.54
2023-01-22T08:50:11.066Z,102016.37
2023-01-22T08:51:11.129Z,102020.39
2023-01-22T08:52:11.064Z,102022.32
2023-01-22T08:53:11.066Z,102020.04
2023-01-22T08:54:11.079Z,102020.68
2023-01-22T08:55:13.064Z,102016.91
2023-01-22T08:56:11.068Z,102011.72
2023-01-22T08:57:11.065Z,102008.52
2023-01-22T08:58:11.063Z,102009.00
2023-01-22T08:59:11.063Z,102005.55
2023-01-22T09:00:11.071Z,102003.60
2023-01-22T09:01:15.127Z,102003.62
2023-01-22T09:02:13.122Z,102005.40
2023-01-22T09:03:11.070Z,102004.42
2023-01-22T09:04:11.076Z,102002.78
2023-01-22T09:05:11.066Z,102003.26
2023-01-22T09:06:11.079Z,102002.68
2023-01-22T09:07:11.071Z,101999.64
2023-01-22T09:08:11.064Z,101998.92
2023-01-22T09:09:11.062Z,101998.27
2023-01-22T09:10:12.070Z,101998.11
2023-01-22T09:11:11.065Z,101996.08
2023-01-22T09:12:11.065Z,101999.72
2023-01-22T09:13:11.069Z,102001.26
2023-01-22T09:14:12.064Z,102003.13
2023-01-22T09:15:11.067Z,102004.07
2023-01-22T09:16:11.201Z,102002.77
2023-01-22T09:17:11.063Z,102007.73
2023-01-22T09:18:11.071Z,102006.59
2023-01-22T09:19:11.074Z,102010.72
2023-01-22T09:20:11.062Z,102010.70
2023-01-22T09:21:11.095Z,102010.56
2023-01-22T09:22:11.067Z,102009.79
2023-01-22T09:23:11.065Z,102007.76
2023-01-22T09:24:11.063Z,102012.18
2023-01-22T09:25:11.072Z,102011.50
2023-01-22T09:26:11.065Z,102014.80
2023-01-22T09:27:11.062Z,102012.54
2023-01-22T09:28:12.072Z,102014.12
2023-01-22T09:29:11.062Z,102013.00
2023-01-22T09:30:11.063Z,102014.78
2023-01-22T09:31:12.136Z,102013.41
2023-01-22T09:32:11.068Z,102010.58
2023-01-22T09:33:11.065Z,102006.04
2023-01-22T09:34:11.067Z,102012.33
2023-01-22T09:35:11.070Z,102010.03
2023-01-22T09:36:14.064Z,102011.21
2023-01-22T09:37:11.068Z,102010.44
2023-01-22T09:38:13.064Z,102010.04
2023-01-22T09:39:11.066Z,102008.67
2023-01-22T09:40:18.450Z,102007.83
2023-01-22T09:41:25.071Z,101998.07
2023-01-22T09:42:16.062Z,101998.90
2023-01-22T09:43:19.074Z,101993.03
2023-01-22T09:44:19.065Z,101988.12
2023-01-22T09:45:13.065Z,101990.00
2023-01-22T09:46:16.086Z,101994.61
2023-01-22T09:47:16.075Z,101991.93
2023-01-22T09:48:14.083Z,101995.81
2023-01-22T09:49:16.066Z,101997.68
2023-01-22T09:50:22.182Z,101998.27
2023-01-22T09:51:15.127Z,101999.59
2023-01-22T09:52:11.071Z,101993.68
2023-01-22T09:53:15.067Z,101998.63
2023-01-22T09:54:12.068Z,101995.32
2023-01-22T09:55:15.064Z,101997.84
2023-01-22T09:56:19.065Z,102002.67
2023-01-22T09:57:26.473Z,102002.82
2023-01-22T09:58:17.068Z,102005.73
2023-01-22T09:59:18.062Z,102006.26
2023-01-22T10:00:15.068Z,102010.94
2023-01-22T10:01:11.138Z,102009.84
2023-01-22T10:02:22.137Z,102011.02
2023-01-22T10:03:21.338Z,102014.94
2023-01-22T10:04:19.057Z,102017.61
2023-01-22T10:05:19.060Z,102017.69
2023-01-22T10:06:20.068Z,102015.75
2023-01-22T10:07:20.063Z,102015.19
2023-01-22T10:08:21.060Z,102014.48
2023-01-22T10:09:16.063Z,102015.82
2023-01-22T10:10:22.178Z,102009.77
2023-01-22T10:11:11.070Z,102013.25
2023-01-22T10:12:15.071Z,102013.26
2023-01-22T10:13:22.079Z,102011.79
2023-01-22T10:14:15.061Z,102017.37
2023-01-22T10:15:14.071Z,102013.14
2023-01-22T10:16:11.061Z,102016.17
2023-01-22T10:17:20.066Z,102018.79
2023-01-22T10:18:19.062Z,102022.17
2023-01-22T10:19:20.069Z,102021.65
2023-01-22T10:20:12.068Z,102027.68
2023-01-22T10:21:18.061Z,102025.85
2023-01-22T10:22:19.073Z,102028.40
2023-01-22T10:23:17.069Z,102032.21
2023-01-22T10:24:11.061Z,102033.54
2023-01-22T10:25:15.060Z,102036.18
2023-01-22T10:26:16.063Z,102037.70
2023-01-22T10:27:14.064Z,102038.89
2023-01-22T10:28:11.063Z,102042.00
2023-01-22T10:29:19.068Z,102030.56
2023-01-22T10:30:19.461Z,102038.46
2023-01-22T10:31:19.186Z,102037.88
2023-01-22T10:32:19.060Z,102044.08
2023-01-22T10:33:18.064Z,102044.88
2023-01-22T10:34:21.064Z,102045.36
2023-01-22T10:35:18.069Z,102050.89
2023-01-22T10:36:15.063Z,102049.07
2023-01-22T10:37:15.062Z,102049.94
2023-01-22T10:38:19.060Z,102049.43
2023-01-22T10:39:14.069Z,102049.90
2023-01-22T10:40:19.517Z,102049.64
2023-01-22T10:41:17.060Z,102056.25
2023-01-22T10:42:18.064Z,102056.39
2023-01-22T10:43:15.070Z,102059.85
2023-01-22T10:44:22.068Z,102060.51
2023-01-22T10:45:18.066Z,102062.08
2023-01-22T10:46:22.172Z,102059.21
2023-01-22T10:47:15.063Z,102062.00
2023-01-22T10:48:14.072Z,102056.64
2023-01-22T10:49:16.068Z,102058.26
2023-01-22T10:50:15.063Z,102059.83
2023-01-22T10:51:20.171Z,102058.40
2023-01-22T10:52:21.089Z,102056.00
2023-01-22T10:53:19.060Z,102058.37
2023-01-22T10:54:19.060Z,102056.02
2023-01-22T10:55:19.061Z,102053.97
2023-01-22T10:56:12.760Z,102055.30
2023-01-22T10:57:22.075Z,102055.04
2023-01-22T10:58:15.061Z,102053.93
2023-01-22T10:59:19.060Z,102060.42
2023-01-22T11:00:19.341Z,102060.42
2023-01-22T11:01:19.120Z,102064.20
2023-01-22T11:02:20.106Z,102067.22
2023-01-22T11:03:19.068Z,102065.78
2023-01-22T11:04:18.079Z,102070.16
2023-01-22T11:05:19.071Z,102066.51
2023-01-22T11:06:21.067Z,102070.54
2023-01-22T11:07:17.085Z,102072.54
2023-01-22T11:08:15.065Z,102076.96
2023-01-22T11:09:17.078Z,102080.62
2023-01-22T11:10:19.676Z,102079.92
2023-01-22T11:11:13.065Z,102081.98
2023-01-22T11:12:18.059Z,102081.70
2023-01-22T11:13:22.077Z,102077.41
2023-01-22T11:14:19.065Z,102076.95
2023-01-22T11:15:20.062Z,102067.92
2023-01-22T11:16:19.067Z,102064.51
2023-01-22T11:17:19.066Z,102059.99
2023-01-22T11:18:22.065Z,102059.75
2023-01-22T11:19:16.654Z,102056.96
2023-01-22T11:20:21.527Z,102060.75
2023-01-22T11:21:15.075Z,102068.19
2023-01-22T11:22:22.068Z,102071.44
2023-01-22T11:23:22.074Z,102071.97
2023-01-22T11:24:22.068Z,102074.64